createdAt,value
2018-03-22T00:01:02.401Z,100207.45
2018-03-22T00:03:30.936Z,100194.52
2018-03-22T00:05:59.065Z,100204.89
2018-03-22T00:08:26.691Z,100197.58
2018-03-22T00:10:57.696Z,100195.39
2018-03-22T00:13:25.460Z,100198.03
2018-03-22T00:15:53.192Z,100190.34
2018-03-22T00:18:21.002Z,100186.91
2018-03-22T00:20:48.916Z,100183.11
2018-03-22T00:23:16.770Z,100187.42
2018-03-22T00:25:44.602Z,100182.41
2018-03-22T00:28:12.412Z,100191.36
2018-03-22T00:30:39.993Z,100188.39
2018-03-22T00:33:07.596Z,100184.02
2018-03-22T00:35:35.457Z,100178.92
2018-03-22T00:38:05.875Z,100172.98
2018-03-22T00:40:33.957Z,100172.53
2018-03-22T00:43:01.709Z,100170.32
2018-03-22T00:45:30.477Z,100171.61
2018-03-22T00:47:58.064Z,100162.20
2018-03-22T00:50:26.677Z,100160.09
2018-03-22T00:52:55.098Z,100148.64
2018-03-22T00:55:25.087Z,100154.63
2018-03-22T00:57:53.760Z,100166.36
2018-03-22T01:00:21.335Z,100166.25
2018-03-22T01:02:48.869Z,100150.44
2018-03-22T01:05:16.457Z,100167.20
2018-03-22T01:07:44.020Z,100146.05
2018-03-22T01:10:11.725Z,100147.72
2018-03-22T01:12:39.287Z,100145.56
2018-03-22T01:15:06.855Z,100145.23
2018-03-22T01:17:34.395Z,100149.91
2018-03-22T01:20:02.008Z,100147.82
2018-03-22T01:22:29.561Z,100150.81
2018-03-22T01:24:57.085Z,100143.89
2018-03-22T01:27:24.659Z,100139.55
2018-03-22T01:29:52.188Z,100137.42
2018-03-22T01:32:19.764Z,100132.77
2018-03-22T01:34:47.345Z,100131.05
2018-03-22T01:37:14.923Z,100131.05
2018-03-22T01:39:42.451Z,100132.32
2018-03-22T01:42:10.021Z,100130.19
2018-03-22T01:44:37.935Z,100130.64
2018-03-22T01:47:05.496Z,100131.64
2018-03-22T01:49:33.060Z,100119.64
2018-03-22T01:52:00.640Z,100114.86
2018-03-22T01:54:28.305Z,100119.94
2018-03-22T01:56:55.857Z,100113.90
2018-03-22T01:59:23.389Z,100108.25
2018-03-22T02:01:50.997Z,100112.60
2018-03-22T02:04:18.500Z,100103.64
2018-03-22T02:06:46.060Z,100105.70
2018-03-22T02:09:13.607Z,100113.98
2018-03-22T02:11:41.186Z,100104.97
2018-03-22T02:14:08.717Z,100104.52
2018-03-22T02:16:36.283Z,100093.45
2018-03-22T02:19:03.810Z,100095.91
2018-03-22T02:21:31.371Z,100085.97
2018-03-22T02:23:58.915Z,100085.09
2018-03-22T02:26:26.460Z,100084.70
2018-03-22T02:28:54.037Z,100082.96
2018-03-22T02:31:21.561Z,100086.05
2018-03-22T02:33:49.120Z,100091.17
2018-03-22T02:36:16.669Z,100081.41
2018-03-22T02:38:44.249Z,100078.73
2018-03-22T02:41:11.768Z,100074.77
2018-03-22T02:43:39.320Z,100065.29
2018-03-22T02:46:06.850Z,100058.80
2018-03-22T02:48:34.423Z,100057.59
2018-03-22T02:51:05.167Z,100058.80
2018-03-22T02:53:33.381Z,100041.59
2018-03-22T02:56:02.090Z,100031.81
2018-03-22T02:58:30.004Z,100030.89
2018-03-22T03:00:57.606Z,100030.88
2018-03-22T03:03:25.171Z,100027.44
2018-03-22T03:05:52.896Z,100030.81
2018-03-22T03:08:20.608Z,100027.41
2018-03-22T03:10:48.261Z,100029.12
2018-03-22T03:13:15.812Z,100024.85
2018-03-22T03:15:43.513Z,100034.22
2018-03-22T03:18:11.084Z,100039.98
2018-03-22T03:20:38.624Z,100037.41
2018-03-22T03:23:07.484Z,100034.89
2018-03-22T03:25:35.012Z,100022.81
2018-03-22T03:28:02.573Z,100020.98
2018-03-22T03:30:30.172Z,100015.78
2018-03-22T03:32:57.740Z,100022.27
2018-03-22T03:35:25.284Z,100015.02
2018-03-22T03:37:52.844Z,100020.16
2018-03-22T03:40:20.832Z,100014.98
2018-03-22T03:42:48.388Z,100023.50
2018-03-22T03:45:15.956Z,100007.96
2018-03-22T03:47:43.496Z,100006.22
2018-03-22T03:50:11.028Z,100002.41
2018-03-22T03:52:38.717Z,100000.23
2018-03-22T03:55:06.249Z,99992.91
2018-03-22T03:57:33.769Z,99999.78
2018-03-22T04:00:01.332Z,99998.48
2018-03-22T04:02:28.861Z,99986.44
2018-03-22T04:04:56.412Z,99986.44
2018-03-22T04:07:23.943Z,99996.24
2018-03-22T04:09:51.541Z,99991.94
2018-03-22T04:12:19.098Z,99988.08
2018-03-22T04:14:46.656Z,99993.72
2018-03-22T04:17:14.188Z,99994.61
2018-03-22T04:19:41.776Z,99981.70
2018-03-22T04:22:09.337Z,99976.42
2018-03-22T04:24:36.888Z,99966.09
2018-03-22T04:27:04.417Z,99960.23
2018-03-22T04:29:31.981Z,99959.28
2018-03-22T04:31:59.547Z,99948.52
2018-03-22T04:34:27.099Z,99953.64
2018-03-22T04:36:54.641Z,99958.34
2018-03-22T04:39:22.195Z,99959.66
2018-03-22T04:41:49.720Z,99944.58
2018-03-22T04:44:17.268Z,99949.20
2018-03-22T04:46:44.797Z,99933.31
2018-03-22T04:49:12.487Z,99936.78
2018-03-22T04:51:40.046Z,99936.30
2018-03-22T04:54:07.683Z,99930.80
2018-03-22T04:56:35.230Z,99935.38
2018-03-22T04:59:02.783Z,99920.73
2018-03-22T05:01:30.308Z,99934.03
2018-03-22T05:03:57.876Z,99907.41
2018-03-22T05:06:25.515Z,99904.07
2018-03-22T05:08:53.086Z,99896.72
2018-03-22T05:11:20.604Z,99896.19
2018-03-22T05:13:48.167Z,99893.11
2018-03-22T05:16:15.688Z,99886.42
2018-03-22T05:18:43.259Z,99885.39
2018-03-22T05:21:10.794Z,99888.34
2018-03-22T05:23:39.317Z,99884.90
2018-03-22T05:26:06.847Z,99881.92
2018-03-22T05:28:34.404Z,99878.52
2018-03-22T05:31:01.949Z,99880.28
2018-03-22T05:33:29.474Z,99890.17
2018-03-22T05:35:57.038Z,99892.88
2018-03-22T05:38:24.569Z,99878.63
2018-03-22T05:40:52.138Z,99877.63
2018-03-22T05:43:19.668Z,99873.84
2018-03-22T05:45:47.900Z,99877.69
2018-03-22T05:48:16.700Z,99869.11
2018-03-22T05:50:45.118Z,99863.89
2018-03-22T05:53:13.473Z,99868.68
2018-03-22T05:55:44.779Z,99857.88
2018-03-22T05:58:14.574Z,99874.19
2018-03-22T06:00:42.562Z,99867.34
2018-03-22T06:03:10.578Z,99868.01
2018-03-22T06:05:38.288Z,99862.77
2018-03-22T06:08:06.089Z,99867.05
2018-03-22T06:10:35.380Z,99863.64
2018-03-22T06:13:03.432Z,99859.78
2018-03-22T06:15:31.389Z,99855.39
2018-03-22T06:17:58.947Z,99857.09
2018-03-22T06:20:26.506Z,99866.88
2018-03-22T06:22:54.036Z,99854.39
2018-03-22T06:25:21.628Z,99851.48
2018-03-22T06:27:49.161Z,99848.83
2018-03-22T06:30:16.716Z,99843.38
2018-03-22T06:32:44.252Z,99840.68
2018-03-22T06:35:11.836Z,99828.59
2018-03-22T06:37:39.476Z,99824.70
2018-03-22T06:40:07.093Z,99823.20
2018-03-22T06:42:34.721Z,99819.84
2018-03-22T06:45:02.281Z,99816.36
2018-03-22T06:47:29.798Z,99825.77
2018-03-22T06:49:57.436Z,99816.17
2018-03-22T06:52:24.959Z,99814.52
2018-03-22T06:54:52.519Z,99814.86
2018-03-22T06:57:20.046Z,99818.55
2018-03-22T06:59:47.613Z,99816.73
2018-03-22T07:02:15.127Z,99820.81
2018-03-22T07:04:42.690Z,99815.64
2018-03-22T07:07:10.221Z,99832.72
2018-03-22T07:09:37.802Z,99826.70
2018-03-22T07:12:08.305Z,99830.12
2018-03-22T07:14:36.030Z,99826.92
2018-03-22T07:17:04.455Z,99824.61
2018-03-22T07:19:31.973Z,99813.95
2018-03-22T07:21:59.528Z,99818.41
2018-03-22T07:24:27.061Z,99810.04
2018-03-22T07:26:54.644Z,99830.28
2018-03-22T07:29:22.160Z,99815.84
2018-03-22T07:31:49.716Z,99814.92
2018-03-22T07:34:17.244Z,99824.41
2018-03-22T07:36:44.807Z,99825.87
2018-03-22T07:39:12.357Z,99823.17
2018-03-22T07:41:39.917Z,99818.56
2018-03-22T07:44:12.289Z,99818.37
2018-03-22T07:46:39.845Z,99807.73
2018-03-22T07:49:07.358Z,99809.19
2018-03-22T07:51:34.920Z,99805.41
2018-03-22T07:54:02.441Z,99801.89
2018-03-22T07:56:30.008Z,99809.19
2018-03-22T07:58:57.600Z,99807.95
2018-03-22T08:01:25.170Z,99794.77
2018-03-22T08:03:52.704Z,99792.34
2018-03-22T08:06:20.260Z,99776.70
2018-03-22T08:08:47.771Z,99782.80
2018-03-22T08:11:15.473Z,99774.23
2018-03-22T08:13:43.004Z,99765.75
2018-03-22T08:16:10.583Z,99765.41
2018-03-22T08:18:38.108Z,99757.08
2018-03-22T08:21:05.662Z,99753.70
2018-03-22T08:23:33.195Z,99744.75
2018-03-22T08:26:00.848Z,99734.76
2018-03-22T08:28:28.407Z,99735.19
2018-03-22T08:30:55.959Z,99753.62
2018-03-22T08:33:23.553Z,99739.89
2018-03-22T08:35:55.101Z,99734.20
2018-03-22T08:38:24.285Z,99737.06
2018-03-22T08:40:55.511Z,99731.91
2018-03-22T08:43:24.384Z,99723.95
2018-03-22T08:45:52.463Z,99726.58
2018-03-22T08:48:24.320Z,99721.94
2018-03-22T08:50:54.925Z,99724.91
2018-03-22T08:53:23.724Z,99725.13
2018-03-22T08:55:52.353Z,99732.75
2018-03-22T08:58:22.059Z,99733.11
2018-03-22T09:00:49.728Z,99738.69
2018-03-22T09:03:19.165Z,99731.44
2018-03-22T09:05:47.554Z,99734.20
2018-03-22T09:08:16.830Z,99738.11
2018-03-22T09:10:45.994Z,99735.38
2018-03-22T09:13:13.603Z,99741.77
2018-03-22T09:15:45.014Z,99739.23
2018-03-22T09:18:14.340Z,99740.27
2018-03-22T09:20:43.272Z,99739.00
2018-03-22T09:23:12.477Z,99743.34
2018-03-22T09:25:40.052Z,99750.70
2018-03-22T09:28:07.768Z,99751.88
2018-03-22T09:30:38.145Z,99763.17
2018-03-22T09:33:08.452Z,99740.54
2018-03-22T09:35:36.322Z,99734.34
2018-03-22T09:38:03.968Z,99731.67
2018-03-22T09:40:31.536Z,99722.92
2018-03-22T09:42:59.252Z,99722.56
2018-03-22T09:45:28.326Z,99724.30
2018-03-22T09:47:56.219Z,99712.34
2018-03-22T09:50:23.775Z,99700.09
2018-03-22T09:52:51.348Z,99703.01
2018-03-22T09:55:18.951Z,99706.27
2018-03-22T09:57:46.502Z,99693.20
2018-03-22T10:00:14.032Z,99694.53
2018-03-22T10:02:41.586Z,99695.45
2018-03-22T10:05:09.121Z,99690.73
2018-03-22T10:07:36.742Z,99687.77
2018-03-22T10:10:04.272Z,99683.19
2018-03-22T10:12:31.890Z,99686.07
2018-03-22T10:14:59.412Z,99676.17
2018-03-22T10:17:27.117Z,99677.36
2018-03-22T10:19:56.021Z,99659.77
2018-03-22T10:22:28.760Z,99663.83
2018-03-22T10:25:00.808Z,99661.72
2018-03-22T10:27:31.279Z,99649.87
2018-03-22T10:30:02.308Z,99646.75
2018-03-22T10:32:30.658Z,99651.13
2018-03-22T10:35:00.243Z,99641.09
2018-03-22T10:37:33.315Z,99639.42
2018-03-22T10:40:02.575Z,99630.33
2018-03-22T10:42:33.302Z,99618.51
2018-03-22T10:45:03.501Z,99615.70
2018-03-22T10:47:35.471Z,99614.80
2018-03-22T10:50:04.372Z,99607.46
2018-03-22T10:52:35.335Z,99610.86
2018-03-22T10:55:06.664Z,99605.63
2018-03-22T10:57:35.406Z,99593.46
2018-03-22T11:00:04.542Z,99591.66
2018-03-22T11:02:40.482Z,99585.53
2018-03-22T11:05:08.142Z,99588.91
2018-03-22T11:07:37.866Z,99574.14
2018-03-22T11:10:06.419Z,99571.03
2018-03-22T11:12:37.886Z,99581.65
2018-03-22T11:15:06.992Z,99567.37
2018-03-22T11:17:36.305Z,99553.43
2018-03-22T11:20:05.656Z,99551.36
2018-03-22T11:22:33.971Z,99546.58
2018-03-22T11:25:02.763Z,99544.77
2018-03-22T11:27:34.307Z,99552.89
2018-03-22T11:30:01.888Z,99538.22
2018-03-22T11:32:34.081Z,99528.14
2018-03-22T11:35:05.798Z,99520.33
2018-03-22T11:37:36.954Z,99518.41
2018-03-22T11:40:05.103Z,99486.23
2018-03-22T11:42:34.242Z,99506.78
2018-03-22T11:45:03.111Z,99499.50
2018-03-22T11:47:30.953Z,99501.17
2018-03-22T11:49:58.883Z,99497.17
2018-03-22T11:52:26.490Z,99493.09
2018-03-22T11:54:54.056Z,99487.56
2018-03-22T11:57:21.593Z,99488.25
2018-03-22T11:59:49.146Z,99492.18
2018-03-22T12:02:16.795Z,99480.55
2018-03-22T12:04:44.597Z,99477.62
2018-03-22T12:07:12.127Z,99466.16
2018-03-22T12:09:39.681Z,99457.12
2018-03-22T12:12:07.204Z,99441.64
2018-03-22T12:14:34.768Z,99458.95
2018-03-22T12:17:02.459Z,99468.55
2018-03-22T12:19:30.014Z,99467.36
2018-03-22T12:21:57.853Z,99480.53
2018-03-22T12:24:25.415Z,99483.34
2018-03-22T12:26:53.291Z,99484.23
2018-03-22T12:29:20.896Z,99456.62
2018-03-22T12:31:48.441Z,99454.46
2018-03-22T12:34:16.003Z,99447.91
2018-03-22T12:36:43.587Z,99456.55
2018-03-22T12:39:11.149Z,99448.02
2018-03-22T12:41:38.706Z,99446.11
2018-03-22T12:44:06.265Z,99444.94
2018-03-22T12:46:33.840Z,99448.86
2018-03-22T12:49:01.391Z,99443.56
2018-03-22T12:51:28.914Z,99448.21
2018-03-22T12:53:56.487Z,99442.08
2018-03-22T12:56:24.011Z,99432.24
2018-03-22T12:58:51.565Z,99434.88
2018-03-22T13:01:19.106Z,99443.56
2018-03-22T13:03:46.655Z,99443.71
2018-03-22T13:06:14.171Z,99439.52
2018-03-22T13:08:41.751Z,99446.08
2018-03-22T13:11:11.931Z,99447.38
2018-03-22T13:13:39.736Z,99431.75
2018-03-22T13:16:10.473Z,99432.39
2018-03-22T13:18:40.184Z,99432.59
2018-03-22T13:21:08.161Z,99432.43
2018-03-22T13:23:35.708Z,99417.26
2018-03-22T13:26:06.976Z,99411.44
2018-03-22T13:28:37.336Z,99415.97
2018-03-22T13:31:09.476Z,99407.34
2018-03-22T13:33:39.017Z,99411.70
2018-03-22T13:36:08.103Z,99402.05
2018-03-22T13:38:40.466Z,99402.14
2018-03-22T13:41:10.115Z,99398.66
2018-03-22T13:43:44.442Z,99397.16
2018-03-22T13:46:13.013Z,99393.15
2018-03-22T13:48:41.616Z,99380.47
2018-03-22T13:51:14.299Z,99370.48
2018-03-22T13:53:45.420Z,99373.00
2018-03-22T13:56:15.917Z,99363.92
2018-03-22T13:58:50.097Z,99360.79
2018-03-22T14:01:21.453Z,99366.44
2018-03-22T14:03:51.738Z,99361.67
2018-03-22T14:06:22.694Z,99350.50
2018-03-22T14:08:52.479Z,99352.97
2018-03-22T14:11:23.684Z,99349.88
2018-03-22T14:13:53.651Z,99341.38
2018-03-22T14:16:24.368Z,99336.53
2018-03-22T14:18:55.269Z,99334.23
2018-03-22T14:21:24.774Z,99332.17
2018-03-22T14:23:53.601Z,99325.58
2018-03-22T14:26:21.245Z,99326.32
2018-03-22T14:28:51.784Z,99319.06
2018-03-22T14:31:21.957Z,99331.30
2018-03-22T14:33:52.435Z,99313.04
2018-03-22T14:36:22.782Z,99300.25
2018-03-22T14:38:52.092Z,99300.53
2018-03-22T14:41:23.796Z,99293.84
2018-03-22T14:43:53.317Z,99307.38
2018-03-22T14:46:22.704Z,99318.13
2018-03-22T14:48:52.353Z,99311.57
2018-03-22T14:51:22.500Z,99310.16
2018-03-22T14:53:52.341Z,99308.94
2018-03-22T14:56:23.078Z,99299.95
2018-03-22T14:58:53.585Z,99291.64
2018-03-22T15:01:26.376Z,99283.91
2018-03-22T15:03:55.470Z,99296.27
2018-03-22T15:06:26.235Z,99284.78
2018-03-22T15:08:55.690Z,99281.26
2018-03-22T15:11:26.664Z,99278.67
2018-03-22T15:13:56.045Z,99287.19
2018-03-22T15:16:26.179Z,99281.81
2018-03-22T15:18:54.226Z,99283.96
2018-03-22T15:21:25.727Z,99275.68
2018-03-22T15:23:55.348Z,99280.41
2018-03-22T15:26:23.557Z,99262.57
2018-03-22T15:28:53.952Z,99262.77
2018-03-22T15:31:22.008Z,99259.75
2018-03-22T15:33:54.729Z,99284.53
2018-03-22T15:36:27.623Z,99287.83
2018-03-22T15:38:57.192Z,99281.48
2018-03-22T15:41:28.645Z,99271.66
2018-03-22T15:43:56.682Z,99256.14
2018-03-22T15:46:27.632Z,99259.05
2018-03-22T15:48:58.349Z,99268.27
2018-03-22T15:51:26.552Z,99275.22
2018-03-22T15:53:56.804Z,99295.61
2018-03-22T15:56:24.955Z,99272.50
2018-03-22T15:58:55.509Z,99278.52
2018-03-22T16:01:25.666Z,99273.61
2018-03-22T16:03:57.966Z,99268.63
2018-03-22T16:06:29.095Z,99263.75
2018-03-22T16:08:58.484Z,99276.59
2018-03-22T16:11:34.547Z,99269.03
2018-03-22T16:14:04.938Z,99262.05
2018-03-22T16:16:33.899Z,99261.09
2018-03-22T16:19:01.815Z,99252.48
2018-03-22T16:21:30.260Z,99236.64
2018-03-22T16:24:00.565Z,99250.09
2018-03-22T16:26:31.399Z,99245.00
2018-03-22T16:28:59.912Z,99250.18
2018-03-22T16:31:30.442Z,99239.25
2018-03-22T16:33:58.137Z,99248.00
2018-03-22T16:36:28.884Z,99242.62
2018-03-22T16:38:58.028Z,99239.86
2018-03-22T16:41:26.320Z,99243.23
2018-03-22T16:43:54.931Z,99243.09
2018-03-22T16:46:22.504Z,99248.19
2018-03-22T16:48:53.304Z,99250.37
2018-03-22T16:51:22.411Z,99251.25
2018-03-22T16:53:51.574Z,99254.91
2018-03-22T16:56:22.280Z,99260.22
2018-03-22T16:58:49.979Z,99250.91
2018-03-22T17:01:20.091Z,99250.41
2018-03-22T17:03:50.942Z,99242.69
2018-03-22T17:06:18.840Z,99242.69
2018-03-22T17:08:46.531Z,99237.17
2018-03-22T17:11:15.985Z,99235.41
2018-03-22T17:13:45.028Z,99230.59
2018-03-22T17:16:14.753Z,99224.34
2018-03-22T17:18:42.373Z,99225.50
2018-03-22T17:21:12.582Z,99218.28
2018-03-22T17:23:40.216Z,99209.59
2018-03-22T17:26:08.558Z,99206.75
2018-03-22T17:28:36.245Z,99217.52
2018-03-22T17:31:05.689Z,99212.94
2018-03-22T17:33:36.445Z,99204.51
2018-03-22T17:36:04.708Z,99215.56
2018-03-22T17:38:36.226Z,99213.97
2018-03-22T17:41:05.407Z,99210.39
2018-03-22T17:43:32.996Z,99211.95
2018-03-22T17:46:04.143Z,99209.32
2018-03-22T17:48:32.539Z,99208.91
2018-03-22T17:51:01.004Z,99209.69
2018-03-22T17:53:30.316Z,99209.69
2018-03-22T17:56:01.899Z,99211.87
2018-03-22T17:58:30.536Z,99210.67
2018-03-22T18:01:00.506Z,99200.59
2018-03-22T18:03:28.441Z,99207.97
2018-03-22T18:05:56.224Z,99202.36
2018-03-22T18:08:25.972Z,99201.02
2018-03-22T18:11:00.580Z,99200.90
2018-03-22T18:13:28.525Z,99197.42
2018-03-22T18:16:02.317Z,99201.33
2018-03-22T18:18:30.119Z,99201.95
2018-03-22T18:21:00.585Z,99208.74
2018-03-22T18:23:30.835Z,99207.96
2018-03-22T18:25:58.406Z,99208.44
2018-03-22T18:28:28.793Z,99209.26
2018-03-22T18:30:58.474Z,99213.52
2018-03-22T18:33:29.260Z,99210.82
2018-03-22T18:36:00.057Z,99205.41
2018-03-22T18:38:29.278Z,99205.67
2018-03-22T18:40:57.423Z,99212.58
2018-03-22T18:43:25.115Z,99206.56
2018-03-22T18:45:53.830Z,99205.99
2018-03-22T18:48:22.520Z,99205.58
2018-03-22T18:50:50.042Z,99207.03
2018-03-22T18:53:20.128Z,99208.59
2018-03-22T18:55:54.478Z,99211.13
2018-03-22T18:58:22.050Z,99205.36
2018-03-22T19:00:49.579Z,99211.43
2018-03-22T19:03:17.144Z,99210.24
2018-03-22T19:05:44.673Z,99205.42
2018-03-22T19:08:12.242Z,99210.71
2018-03-22T19:10:39.761Z,99210.98
2018-03-22T19:13:07.311Z,99207.66
2018-03-22T19:15:34.847Z,99202.45
2018-03-22T19:18:02.419Z,99215.13
2018-03-22T19:20:29.944Z,99190.19
2018-03-22T19:22:57.528Z,99195.84
2018-03-22T19:25:26.693Z,99197.19
2018-03-22T19:27:54.578Z,99195.70
2018-03-22T19:30:22.167Z,99194.84
2018-03-22T19:32:49.716Z,99198.11
2018-03-22T19:35:17.461Z,99186.23
2018-03-22T19:37:45.171Z,99185.93
2018-03-22T19:40:12.711Z,99190.18
2018-03-22T19:42:40.288Z,99187.73
2018-03-22T19:45:07.824Z,99180.45
2018-03-22T19:47:35.390Z,99174.00
2018-03-22T19:50:02.907Z,99178.19
2018-03-22T19:52:30.795Z,99169.20
2018-03-22T19:54:58.329Z,99167.69
2018-03-22T19:57:26.076Z,99170.16
2018-03-22T19:59:53.603Z,99182.14
2018-03-22T20:02:21.201Z,99183.95
2018-03-22T20:04:48.707Z,99181.97
2018-03-22T20:07:17.908Z,99182.64
2018-03-22T20:09:48.744Z,99180.23
2018-03-22T20:12:17.302Z,99184.55
2018-03-22T20:14:45.079Z,99182.20
2018-03-22T20:17:17.190Z,99184.14
2018-03-22T20:19:45.203Z,99181.28
2018-03-22T20:22:17.310Z,99181.95
2018-03-22T20:24:44.930Z,99181.71
2018-03-22T20:27:12.967Z,99171.25
2018-03-22T20:29:40.810Z,99175.67
2018-03-22T20:32:08.332Z,99159.92
2018-03-22T20:34:35.883Z,99171.61
2018-03-22T20:37:04.397Z,99164.30
2018-03-22T20:39:32.763Z,99161.48
2018-03-22T20:42:00.382Z,99156.92
2018-03-22T20:44:28.296Z,99150.44
2018-03-22T20:46:56.024Z,99145.38
2018-03-22T20:49:23.808Z,99144.03
2018-03-22T20:51:51.359Z,99142.66
2018-03-22T20:54:18.933Z,99150.85
2018-03-22T20:56:46.464Z,99151.10
2018-03-22T20:59:14.012Z,99150.88
2018-03-22T21:01:41.539Z,99150.28
2018-03-22T21:04:09.117Z,99152.48
2018-03-22T21:06:36.646Z,99157.59
2018-03-22T21:09:04.218Z,99164.52
2018-03-22T21:11:31.769Z,99154.27
2018-03-22T21:13:59.347Z,99156.52
2018-03-22T21:16:26.879Z,99148.25
2018-03-22T21:18:54.465Z,99144.88
2018-03-22T21:21:21.992Z,99145.11
2018-03-22T21:23:49.568Z,99145.19
2018-03-22T21:26:17.106Z,99133.91
2018-03-22T21:28:44.840Z,99133.33
2018-03-22T21:31:12.388Z,99132.17
2018-03-22T21:33:39.943Z,99128.12
2018-03-22T21:36:07.475Z,99124.90
2018-03-22T21:38:35.069Z,99125.42
2018-03-22T21:41:02.624Z,99124.91
2018-03-22T21:43:30.168Z,99112.91
2018-03-22T21:45:57.690Z,99119.41
2018-03-22T21:48:25.256Z,99117.87
2018-03-22T21:50:52.855Z,99121.89
2018-03-22T21:53:21.123Z,99115.75
2018-03-22T21:55:51.156Z,99117.46
2018-03-22T21:58:20.540Z,99119.73
2018-03-22T22:00:50.518Z,99110.32
2018-03-22T22:03:22.464Z,99110.64
2018-03-22T22:05:51.349Z,99107.91
2018-03-22T22:08:23.047Z,99102.48
2018-03-22T22:10:53.718Z,99104.54
2018-03-22T22:13:24.380Z,99097.94
2018-03-22T22:15:53.730Z,99095.86
2018-03-22T22:18:23.158Z,99094.91
2018-03-22T22:20:52.619Z,99099.53
2018-03-22T22:23:20.466Z,99096.09
2018-03-22T22:25:51.618Z,99089.58
2018-03-22T22:28:19.276Z,99089.64
2018-03-22T22:30:47.420Z,99087.69
2018-03-22T22:33:17.158Z,99084.15
2018-03-22T22:35:44.817Z,99086.16
2018-03-22T22:38:12.655Z,99076.28
2018-03-22T22:40:40.797Z,99084.44
2018-03-22T22:43:12.685Z,99086.52
2018-03-22T22:45:41.548Z,99072.89
2018-03-22T22:48:09.067Z,99071.38
2018-03-22T22:50:37.612Z,99073.23
2018-03-22T22:53:05.167Z,99063.60
2018-03-22T22:55:33.372Z,99058.74
2018-03-22T22:58:03.146Z,99053.09
2018-03-22T23:00:31.099Z,99063.78
2018-03-22T23:02:59.057Z,99061.66
2018-03-22T23:05:26.628Z,99057.81
2018-03-22T23:07:54.153Z,99057.28
2018-03-22T23:10:22.221Z,99047.77
2018-03-22T23:12:52.583Z,99048.66
2018-03-22T23:15:21.472Z,99052.84
2018-03-22T23:17:49.515Z,99048.71
2018-03-22T23:20:17.924Z,99041.03
2018-03-22T23:22:46.215Z,99037.20
2018-03-22T23:25:14.387Z,99026.61
2018-03-22T23:27:42.470Z,99029.91
2018-03-22T23:30:10.657Z,99032.40
2018-03-22T23:32:38.188Z,99028.73
2018-03-22T23:35:06.619Z,99026.59
2018-03-22T23:37:35.516Z,99029.78
2018-03-22T23:40:03.724Z,99020.88
2018-03-22T23:42:33.633Z,99025.13
2018-03-22T23:45:01.559Z,99021.64
2018-03-22T23:47:29.355Z,99018.16
2018-03-22T23:49:57.335Z,99021.23
2018-03-22T23:52:25.815Z,99016.55
2018-03-22T23:54:53.756Z,99017.22
2018-03-22T23:57:21.351Z,99012.82
2018-03-22T23:59:56.549Z,99016.62
